createdAt,value
2018-08-30T00:01:43.773Z,21.38
2018-08-30T00:04:15.340Z,21.45
2018-08-30T00:06:46.928Z,21.45
2018-08-30T00:09:18.521Z,21.36
2018-08-30T00:11:50.506Z,21.44
2018-08-30T00:14:22.263Z,21.26
2018-08-30T00:16:54.121Z,21.26
2018-08-30T00:19:25.387Z,21.22
2018-08-30T00:22:03.123Z,21.01
2018-08-30T00:24:34.870Z,20.71
2018-08-30T00:27:05.587Z,20.83
2018-08-30T00:29:37.324Z,20.80
2018-08-30T00:32:08.786Z,20.84
2018-08-30T00:34:40.843Z,20.74
2018-08-30T00:37:13.319Z,20.83
2018-08-30T00:39:44.737Z,20.84
2018-08-30T00:42:15.924Z,20.75
2018-08-30T00:44:47.535Z,20.72
2018-08-30T00:47:21.122Z,20.79
2018-08-30T00:49:52.669Z,20.94
2018-08-30T00:52:24.257Z,20.89
2018-08-30T00:54:56.086Z,20.74
2018-08-30T00:57:28.077Z,20.66
2018-08-30T01:00:00.682Z,20.65
2018-08-30T01:02:32.340Z,20.70
2018-08-30T01:05:04.043Z,20.57
2018-08-30T01:07:35.406Z,20.50
2018-08-30T01:10:06.844Z,20.61
2018-08-30T01:12:44.244Z,20.72
2018-08-30T01:15:16.370Z,20.77
2018-08-30T01:17:48.155Z,20.78
2018-08-30T01:20:20.366Z,20.74
2018-08-30T01:22:51.691Z,20.68
2018-08-30T01:25:23.153Z,20.52
2018-08-30T01:27:54.438Z,20.60
2018-08-30T01:30:25.832Z,20.70
2018-08-30T01:32:57.070Z,20.70
2018-08-30T01:35:29.157Z,20.57
2018-08-30T01:38:01.102Z,20.21
2018-08-30T01:40:32.590Z,20.00
2018-08-30T01:43:04.655Z,20.06
2018-08-30T01:45:36.440Z,20.15
2018-08-30T01:48:07.917Z,20.21
2018-08-30T01:50:39.563Z,20.11
2018-08-30T01:53:11.112Z,20.12
2018-08-30T01:55:42.892Z,20.03
2018-08-30T01:58:14.765Z,19.95
2018-08-30T02:00:47.457Z,19.93
2018-08-30T02:03:19.201Z,19.98
2018-08-30T02:05:50.571Z,20.13
2018-08-30T02:08:22.257Z,20.12
2018-08-30T02:10:53.647Z,20.03
2018-08-30T02:13:24.296Z,19.90
2018-08-30T02:15:56.256Z,20.05
2018-08-30T02:18:28.251Z,20.09
2018-08-30T02:20:59.803Z,19.98
2018-08-30T02:23:31.589Z,20.04
2018-08-30T02:26:03.586Z,19.91
2018-08-30T02:28:35.623Z,19.90
2018-08-30T02:31:08.339Z,19.71
2018-08-30T02:33:43.111Z,19.75
2018-08-30T02:36:15.688Z,19.78
2018-08-30T02:38:47.444Z,19.78
2018-08-30T02:41:20.225Z,19.77
2018-08-30T02:43:52.309Z,19.72
2018-08-30T02:46:24.202Z,19.69
2018-08-30T02:48:56.079Z,19.75
2018-08-30T02:51:27.207Z,19.73
2018-08-30T02:53:59.534Z,19.75
2018-08-30T02:56:32.048Z,19.86
2018-08-30T02:59:03.747Z,19.80
2018-08-30T03:01:35.083Z,19.82
2018-08-30T03:04:07.372Z,19.82
2018-08-30T03:06:38.849Z,19.86
2018-08-30T03:09:11.157Z,19.72
2018-08-30T03:11:43.379Z,19.65
2018-08-30T03:14:15.689Z,19.71
2018-08-30T03:16:47.578Z,19.78
2018-08-30T03:19:19.179Z,19.75
2018-08-30T03:21:51.081Z,19.54
2018-08-30T03:24:22.309Z,19.28
2018-08-30T03:26:54.099Z,19.18
2018-08-30T03:29:26.079Z,19.39
2018-08-30T03:31:57.726Z,19.48
2018-08-30T03:34:28.804Z,19.45
2018-08-30T03:37:01.087Z,19.31
2018-08-30T03:39:33.031Z,19.37
2018-08-30T03:42:05.015Z,19.33
2018-08-30T03:44:36.957Z,19.35
2018-08-30T03:47:09.204Z,19.32
2018-08-30T03:49:41.536Z,19.26
2018-08-30T03:52:13.447Z,19.28
2018-08-30T03:54:46.378Z,19.22
2018-08-30T03:57:16.650Z,19.21
2018-08-30T03:59:47.587Z,19.22
2018-08-30T04:02:17.854Z,19.31
2018-08-30T04:04:48.159Z,19.41
2018-08-30T04:07:18.477Z,19.37
2018-08-30T04:09:48.644Z,19.28
2018-08-30T04:12:18.864Z,19.34
2018-08-30T04:14:49.236Z,19.45
2018-08-30T04:17:19.355Z,19.40
2018-08-30T04:19:49.613Z,19.23
2018-08-30T04:22:20.022Z,19.08
2018-08-30T04:24:50.209Z,19.05
2018-08-30T04:27:20.376Z,19.19
2018-08-30T04:29:50.628Z,19.28
2018-08-30T04:32:20.893Z,19.46
2018-08-30T04:34:51.162Z,19.46
2018-08-30T04:37:21.170Z,19.41
2018-08-30T04:39:51.326Z,19.29
2018-08-30T04:42:22.186Z,19.33
2018-08-30T04:44:52.555Z,19.39
2018-08-30T04:47:22.834Z,19.49
2018-08-30T04:49:53.053Z,19.59
2018-08-30T04:52:23.466Z,19.69
2018-08-30T04:54:54.006Z,19.92
2018-08-30T04:57:24.118Z,20.02
2018-08-30T04:59:54.325Z,20.35
2018-08-30T05:02:24.635Z,20.50
2018-08-30T05:04:55.068Z,20.52
2018-08-30T05:07:25.471Z,20.64
2018-08-30T05:09:56.775Z,20.65
2018-08-30T05:12:27.096Z,20.77
2018-08-30T05:14:57.371Z,20.84
2018-08-30T05:17:28.347Z,20.94
2018-08-30T05:19:58.653Z,20.94
2018-08-30T05:22:28.928Z,21.18
2018-08-30T05:24:59.126Z,21.25
2018-08-30T05:27:29.098Z,21.38
2018-08-30T05:29:59.044Z,21.60
2018-08-30T05:32:29.189Z,21.81
2018-08-30T05:34:59.489Z,21.99
2018-08-30T05:37:29.589Z,22.18
2018-08-30T05:39:59.812Z,22.30
2018-08-30T05:42:30.173Z,22.33
2018-08-30T05:45:00.500Z,22.38
2018-08-30T05:47:30.802Z,22.57
2018-08-30T05:50:01.449Z,22.70
2018-08-30T05:52:31.692Z,22.99
2018-08-30T05:55:02.266Z,23.31
2018-08-30T05:57:32.049Z,23.51
2018-08-30T06:00:02.431Z,23.57
2018-08-30T06:02:32.235Z,23.83
2018-08-30T06:05:02.161Z,23.98
2018-08-30T06:07:32.250Z,24.19
2018-08-30T06:10:02.142Z,24.36
2018-08-30T06:12:31.985Z,24.53
2018-08-30T06:15:01.882Z,24.68
2018-08-30T06:17:31.662Z,25.04
2018-08-30T06:20:01.474Z,25.19
2018-08-30T06:22:31.445Z,25.49
2018-08-30T06:25:01.353Z,25.55
2018-08-30T06:27:31.117Z,25.55
2018-08-30T06:30:01.700Z,25.74
2018-08-30T06:32:31.807Z,25.68
2018-08-30T06:35:01.800Z,25.91
2018-08-30T06:37:31.813Z,25.92
2018-08-30T06:40:01.644Z,26.02
2018-08-30T06:42:31.690Z,26.04
2018-08-30T06:45:01.609Z,25.96
2018-08-30T06:47:31.587Z,26.30
2018-08-30T06:50:01.489Z,26.44
2018-08-30T06:52:31.380Z,26.57
2018-08-30T06:55:01.373Z,26.69
2018-08-30T06:57:31.191Z,26.61
2018-08-30T07:00:00.948Z,26.94
2018-08-30T07:02:30.825Z,26.91
2018-08-30T07:05:00.886Z,26.94
2018-08-30T07:07:30.829Z,26.90
2018-08-30T07:10:00.851Z,26.91
2018-08-30T07:12:30.801Z,27.32
2018-08-30T07:15:00.812Z,27.87
2018-08-30T07:17:30.546Z,27.96
2018-08-30T07:20:00.424Z,28.05
2018-08-30T07:22:30.532Z,27.62
2018-08-30T07:25:00.401Z,27.90
2018-08-30T07:27:30.150Z,28.31
2018-08-30T07:29:59.964Z,28.56
2018-08-30T07:32:30.087Z,28.69
2018-08-30T07:35:00.106Z,28.98
2018-08-30T07:37:29.883Z,28.88
2018-08-30T07:39:59.625Z,28.90
2018-08-30T07:42:29.534Z,29.12
2018-08-30T07:44:59.404Z,29.31
2018-08-30T07:47:29.185Z,29.44
2018-08-30T07:49:59.094Z,29.68
2018-08-30T07:52:29.078Z,29.99
2018-08-30T07:54:59.127Z,29.87
2018-08-30T07:57:29.423Z,29.83
2018-08-30T07:59:59.620Z,30.07
2018-08-30T08:02:29.886Z,29.72
2018-08-30T08:05:00.082Z,29.97
2018-08-30T08:07:30.544Z,30.41
2018-08-30T08:10:00.819Z,30.78
2018-08-30T08:12:31.059Z,30.91
2018-08-30T08:15:01.306Z,31.25
2018-08-30T08:17:31.531Z,31.34
2018-08-30T08:20:01.615Z,30.84
2018-08-30T08:22:31.964Z,31.09
2018-08-30T08:25:02.426Z,30.92
2018-08-30T08:27:32.648Z,30.88
2018-08-30T08:30:03.031Z,31.33
2018-08-30T08:32:33.385Z,31.68
2018-08-30T08:35:03.568Z,31.53
2018-08-30T08:37:33.765Z,31.79
2018-08-30T08:40:03.939Z,31.97
2018-08-30T08:42:34.328Z,32.30
2018-08-30T08:45:04.832Z,32.65
2018-08-30T08:47:35.144Z,33.20
2018-08-30T08:50:05.290Z,33.42
2018-08-30T08:52:35.561Z,33.14
2018-08-30T08:55:05.940Z,33.41
2018-08-30T08:57:36.220Z,33.92
2018-08-30T09:00:06.484Z,34.09
2018-08-30T09:02:36.749Z,34.78
2018-08-30T09:05:07.269Z,34.78
2018-08-30T09:07:37.590Z,33.81
2018-08-30T09:10:08.157Z,33.81
2018-08-30T09:12:38.385Z,33.97
2018-08-30T09:15:09.064Z,34.61
2018-08-30T09:17:39.155Z,34.81
2018-08-30T09:20:09.301Z,34.54
2018-08-30T09:22:39.456Z,34.87
2018-08-30T09:25:09.677Z,35.36
2018-08-30T09:27:39.907Z,35.14
2018-08-30T09:30:10.378Z,34.53
2018-08-30T09:32:41.352Z,34.71
2018-08-30T09:35:11.534Z,35.26
2018-08-30T09:37:41.646Z,35.87
2018-08-30T09:40:11.892Z,36.20
2018-08-30T09:42:42.258Z,36.04
2018-08-30T09:45:12.529Z,35.18
2018-08-30T09:47:42.808Z,34.33
2018-08-30T09:50:13.215Z,34.24
2018-08-30T09:52:43.502Z,34.70
2018-08-30T09:55:13.977Z,34.99
2018-08-30T09:57:44.053Z,35.42
2018-08-30T10:00:14.967Z,35.55
2018-08-30T10:02:50.204Z,35.37
2018-08-30T10:05:20.621Z,35.25
2018-08-30T10:07:50.813Z,35.95
2018-08-30T10:10:20.982Z,36.29
2018-08-30T10:12:51.149Z,36.00
2018-08-30T10:15:21.650Z,35.62
2018-08-30T10:17:51.856Z,36.19
2018-08-30T10:20:21.996Z,36.46
2018-08-30T10:22:52.451Z,36.92
2018-08-30T10:25:22.736Z,37.10
2018-08-30T10:27:53.051Z,37.10
2018-08-30T10:30:23.141Z,37.12
2018-08-30T10:32:52.900Z,37.02
2018-08-30T10:35:22.721Z,36.71
2018-08-30T10:37:52.559Z,37.18
2018-08-30T10:40:22.461Z,37.56
2018-08-30T10:42:52.269Z,38.09
2018-08-30T10:45:22.108Z,38.53
2018-08-30T10:47:51.912Z,38.58
2018-08-30T10:50:22.553Z,38.65
2018-08-30T10:52:53.468Z,38.56
2018-08-30T10:55:23.328Z,38.55
2018-08-30T10:57:53.613Z,38.69
2018-08-30T11:00:23.407Z,38.15
2018-08-30T11:02:53.189Z,37.41
2018-08-30T11:05:23.134Z,36.99
2018-08-30T11:07:52.947Z,37.26
2018-08-30T11:10:22.812Z,36.96
2018-08-30T11:12:52.601Z,36.41
2018-08-30T11:15:23.265Z,36.44
2018-08-30T11:17:53.386Z,35.72
2018-08-30T11:20:23.202Z,36.41
2018-08-30T11:22:53.013Z,37.19
2018-08-30T11:25:23.091Z,37.66
2018-08-30T11:27:52.954Z,38.32
2018-08-30T11:30:23.079Z,38.41
2018-08-30T11:32:53.073Z,38.71
2018-08-30T11:35:23.137Z,38.87
2018-08-30T11:37:53.027Z,39.40
2018-08-30T11:40:22.947Z,39.10
2018-08-30T11:42:53.004Z,39.51
2018-08-30T11:45:22.990Z,39.71
2018-08-30T11:47:52.921Z,39.74
2018-08-30T11:50:22.881Z,39.50
2018-08-30T11:52:52.752Z,39.36
2018-08-30T11:55:22.810Z,39.52
2018-08-30T11:57:52.691Z,39.94
2018-08-30T12:00:22.643Z,40.32
2018-08-30T12:02:52.760Z,40.53
2018-08-30T12:05:22.804Z,39.59
2018-08-30T12:07:52.740Z,39.74
2018-08-30T12:10:22.939Z,39.63
2018-08-30T12:12:52.858Z,40.12
2018-08-30T12:15:22.843Z,40.46
2018-08-30T12:17:53.043Z,40.54
2018-08-30T12:20:23.313Z,40.73
2018-08-30T12:22:53.612Z,41.22
2018-08-30T12:25:24.072Z,41.19
2018-08-30T12:27:54.213Z,40.64
2018-08-30T12:30:24.390Z,40.67
2018-08-30T12:32:55.216Z,41.01
2018-08-30T12:35:25.828Z,41.55
2018-08-30T12:37:55.857Z,41.39
2018-08-30T12:40:25.961Z,41.18
2018-08-30T12:42:56.214Z,41.42
2018-08-30T12:45:26.217Z,41.12
2018-08-30T12:47:56.300Z,40.85
2018-08-30T12:50:27.134Z,40.90
2018-08-30T12:52:57.708Z,40.87
2018-08-30T12:55:29.170Z,40.36
2018-08-30T12:57:59.408Z,39.48
2018-08-30T13:00:29.378Z,39.94
2018-08-30T13:02:59.507Z,39.90
2018-08-30T13:05:30.187Z,40.41
2018-08-30T13:08:00.187Z,40.58
2018-08-30T13:10:30.271Z,40.74
2018-08-30T13:13:00.646Z,40.37
2018-08-30T13:15:30.723Z,40.51
2018-08-30T13:18:00.475Z,40.47
2018-08-30T13:20:30.467Z,40.44
2018-08-30T13:23:00.671Z,40.24
2018-08-30T13:25:30.940Z,40.29
2018-08-30T13:28:00.804Z,40.79
2018-08-30T13:30:31.371Z,40.96
2018-08-30T13:33:01.356Z,40.84
2018-08-30T13:35:31.526Z,40.16
2018-08-30T13:38:01.708Z,40.32
2018-08-30T13:40:31.584Z,40.21
2018-08-30T13:43:01.954Z,40.79
2018-08-30T13:45:32.301Z,40.53
2018-08-30T13:48:02.839Z,40.75
2018-08-30T13:50:32.936Z,41.16
2018-08-30T13:53:03.232Z,41.29
2018-08-30T13:55:33.433Z,41.05
2018-08-30T13:58:03.563Z,40.98
2018-08-30T14:00:33.875Z,41.30
2018-08-30T14:03:03.512Z,41.55
2018-08-30T14:05:33.965Z,41.66
2018-08-30T14:08:04.082Z,41.64
2018-08-30T14:10:34.082Z,41.23
2018-08-30T14:13:04.115Z,40.83
2018-08-30T14:15:34.143Z,41.08
2018-08-30T14:18:03.681Z,41.41
2018-08-30T14:20:33.724Z,41.37
2018-08-30T14:23:03.874Z,40.86
2018-08-30T14:25:33.972Z,40.75
2018-08-30T14:28:03.843Z,40.98
2018-08-30T14:30:33.789Z,41.07
2018-08-30T14:33:03.675Z,41.46
2018-08-30T14:35:33.888Z,41.15
2018-08-30T14:38:03.548Z,40.97
2018-08-30T14:40:33.684Z,41.29
2018-08-30T14:43:03.607Z,41.36
2018-08-30T14:45:33.603Z,41.24
2018-08-30T14:48:03.728Z,40.90
2018-08-30T14:50:33.592Z,40.92
2018-08-30T14:53:03.660Z,40.77
2018-08-30T14:55:33.746Z,40.60
2018-08-30T14:58:03.541Z,40.57
2018-08-30T15:00:33.388Z,40.49
2018-08-30T15:03:03.422Z,40.55
2018-08-30T15:05:33.382Z,40.21
2018-08-30T15:08:03.309Z,40.48
2018-08-30T15:10:33.670Z,40.04
2018-08-30T15:13:04.074Z,40.13
2018-08-30T15:15:33.989Z,40.16
2018-08-30T15:18:03.782Z,39.92
2018-08-30T15:20:33.686Z,39.62
2018-08-30T15:23:03.750Z,39.52
2018-08-30T15:25:33.770Z,39.48
2018-08-30T15:28:03.813Z,39.38
2018-08-30T15:30:33.762Z,39.19
2018-08-30T15:33:04.047Z,39.01
2018-08-30T15:35:34.146Z,39.01
2018-08-30T15:38:04.036Z,39.13
2018-08-30T15:40:33.862Z,39.15
2018-08-30T15:43:04.138Z,38.76
2018-08-30T15:45:34.309Z,38.56
2018-08-30T15:48:04.475Z,38.44
2018-08-30T15:50:34.374Z,38.14
2018-08-30T15:53:04.513Z,37.85
2018-08-30T15:55:34.340Z,37.41
2018-08-30T15:58:04.269Z,37.29
2018-08-30T16:00:34.056Z,37.11
2018-08-30T16:03:04.005Z,36.90
2018-08-30T16:05:33.981Z,36.46
2018-08-30T16:08:03.848Z,36.16
2018-08-30T16:10:33.737Z,35.94
2018-08-30T16:13:03.635Z,35.67
2018-08-30T16:15:33.517Z,35.24
2018-08-30T16:18:03.270Z,34.60
2018-08-30T16:20:33.001Z,34.25
2018-08-30T16:23:07.277Z,33.89
2018-08-30T16:25:37.240Z,33.74
2018-08-30T16:28:07.132Z,33.57
2018-08-30T16:30:37.117Z,33.40
2018-08-30T16:33:07.027Z,33.16
2018-08-30T16:35:36.928Z,32.91
2018-08-30T16:38:06.977Z,32.69
2018-08-30T16:40:37.184Z,32.50
2018-08-30T16:43:07.459Z,32.32
2018-08-30T16:45:37.659Z,31.97
2018-08-30T16:48:08.951Z,31.55
2018-08-30T16:50:39.433Z,31.35
2018-08-30T16:53:09.696Z,31.07
2018-08-30T16:55:40.115Z,30.97
2018-08-30T16:58:10.286Z,30.87
2018-08-30T17:00:40.361Z,30.65
2018-08-30T17:03:10.745Z,30.55
2018-08-30T17:05:40.905Z,30.32
2018-08-30T17:08:11.302Z,30.09
2018-08-30T17:10:41.481Z,29.99
2018-08-30T17:13:11.676Z,29.87
2018-08-30T17:15:41.928Z,29.73
2018-08-30T17:18:11.862Z,29.42
2018-08-30T17:20:50.114Z,29.38
2018-08-30T17:23:20.606Z,29.24
2018-08-30T17:25:50.828Z,29.06
2018-08-30T17:28:20.968Z,28.93
2018-08-30T17:30:51.500Z,28.79
2018-08-30T17:33:22.220Z,28.62
2018-08-30T17:35:52.530Z,28.43
2018-08-30T17:38:22.554Z,28.32
2018-08-30T17:40:52.710Z,28.24
2018-08-30T17:43:23.043Z,28.13
2018-08-30T17:45:53.266Z,28.09
2018-08-30T17:48:23.521Z,27.92
2018-08-30T17:50:53.657Z,27.78
2018-08-30T17:53:23.956Z,27.56
2018-08-30T17:55:54.302Z,27.58
2018-08-30T17:58:24.485Z,27.61
2018-08-30T18:00:54.655Z,27.52
2018-08-30T18:03:24.870Z,27.32
2018-08-30T18:05:55.233Z,27.28
2018-08-30T18:08:25.273Z,27.17
2018-08-30T18:10:55.568Z,27.09
2018-08-30T18:13:25.789Z,27.12
2018-08-30T18:15:56.087Z,27.09
2018-08-30T18:18:26.247Z,26.96
2018-08-30T18:20:56.662Z,26.87
2018-08-30T18:23:26.854Z,26.79
2018-08-30T18:25:57.078Z,26.76
2018-08-30T18:28:27.283Z,26.65
2018-08-30T18:30:57.414Z,26.60
2018-08-30T18:33:27.588Z,26.52
2018-08-30T18:35:57.835Z,26.41
2018-08-30T18:38:27.928Z,26.24
2018-08-30T18:40:58.098Z,26.13
2018-08-30T18:43:28.697Z,26.05
2018-08-30T18:45:59.038Z,26.00
2018-08-30T18:48:29.316Z,26.02
2018-08-30T18:50:59.661Z,25.91
2018-08-30T18:53:30.073Z,25.69
2018-08-30T18:56:00.406Z,25.71
2018-08-30T18:58:30.927Z,25.58
2018-08-30T19:01:01.643Z,25.47
2018-08-30T19:03:31.984Z,25.36
2018-08-30T19:06:02.374Z,25.36
2018-08-30T19:08:33.568Z,25.32
2018-08-30T19:11:03.997Z,25.36
2018-08-30T19:13:34.229Z,25.33
2018-08-30T19:16:09.444Z,25.10
2018-08-30T19:18:44.553Z,24.96
2018-08-30T19:21:14.604Z,24.81
2018-08-30T19:23:45.116Z,24.85
2018-08-30T19:26:15.617Z,24.78
2018-08-30T19:28:45.686Z,24.68
2018-08-30T19:31:16.116Z,24.81
2018-08-30T19:33:46.403Z,24.80
2018-08-30T19:36:21.553Z,24.67
2018-08-30T19:38:51.763Z,24.58
2018-08-30T19:41:22.787Z,24.55
2018-08-30T19:43:53.926Z,24.52
2018-08-30T19:46:24.967Z,24.51
2018-08-30T19:48:55.225Z,24.49
2018-08-30T19:51:26.197Z,24.44
2018-08-30T19:53:57.826Z,24.45
2018-08-30T19:56:28.050Z,24.41
2018-08-30T19:58:58.179Z,24.40
2018-08-30T20:01:28.245Z,24.21
2018-08-30T20:03:59.450Z,24.17
2018-08-30T20:06:29.829Z,24.18
2018-08-30T20:09:00.838Z,24.20
2018-08-30T20:11:32.212Z,24.23
2018-08-30T20:14:02.352Z,24.23
2018-08-30T20:16:32.457Z,24.13
2018-08-30T20:19:02.716Z,23.98
2018-08-30T20:21:32.800Z,23.96
2018-08-30T20:24:03.035Z,24.02
2018-08-30T20:26:33.363Z,24.17
2018-08-30T20:29:03.644Z,23.97
2018-08-30T20:31:33.902Z,23.85
2018-08-30T20:34:04.061Z,23.95
2018-08-30T20:36:34.323Z,23.83
2018-08-30T20:39:05.579Z,23.88
2018-08-30T20:41:35.955Z,23.88
2018-08-30T20:44:06.533Z,23.82
2018-08-30T20:46:36.645Z,23.69
2018-08-30T20:49:07.272Z,23.59
2018-08-30T20:51:37.813Z,23.66
2018-08-30T20:54:08.017Z,23.52
2018-08-30T20:56:38.262Z,23.47
2018-08-30T20:59:08.477Z,23.38
2018-08-30T21:01:38.754Z,23.16
2018-08-30T21:04:08.902Z,23.21
2018-08-30T21:06:39.801Z,23.30
2018-08-30T21:09:10.602Z,23.14
2018-08-30T21:11:41.056Z,22.86
2018-08-30T21:14:11.428Z,22.71
2018-08-30T21:16:42.959Z,22.82
2018-08-30T21:19:14.400Z,22.64
2018-08-30T21:21:44.944Z,22.79
2018-08-30T21:24:16.370Z,22.92
2018-08-30T21:26:48.246Z,23.07
2018-08-30T21:29:19.274Z,23.09
2018-08-30T21:31:50.820Z,23.02
2018-08-30T21:34:22.091Z,22.99
2018-08-30T21:36:53.531Z,22.84
2018-08-30T21:39:24.756Z,22.65
2018-08-30T21:41:56.105Z,22.48
2018-08-30T21:44:27.929Z,22.46
2018-08-30T21:46:59.509Z,22.59
2018-08-30T21:49:30.960Z,22.35
2018-08-30T21:52:02.541Z,22.46
2018-08-30T21:54:33.976Z,22.52
2018-08-30T21:57:05.063Z,22.62
2018-08-30T21:59:36.680Z,22.62
2018-08-30T22:02:08.194Z,22.59
2018-08-30T22:04:39.155Z,22.53
2018-08-30T22:07:10.654Z,22.70
2018-08-30T22:09:42.129Z,22.64
2018-08-30T22:12:13.635Z,22.66
2018-08-30T22:14:44.818Z,22.56
2018-08-30T22:17:16.065Z,22.45
2018-08-30T22:19:47.522Z,22.41
2018-08-30T22:22:19.047Z,22.25
2018-08-30T22:24:50.329Z,22.29
2018-08-30T22:27:21.509Z,22.33
2018-08-30T22:29:53.277Z,22.39
2018-08-30T22:32:24.503Z,22.36
2018-08-30T22:34:56.222Z,22.29
2018-08-30T22:37:27.630Z,22.26
2018-08-30T22:39:58.734Z,22.30
2018-08-30T22:42:30.242Z,22.35
2018-08-30T22:45:02.508Z,22.29
2018-08-30T22:47:35.076Z,22.18
2018-08-30T22:50:07.360Z,22.12
2018-08-30T22:52:39.412Z,22.28
2018-08-30T22:55:11.097Z,22.18
2018-08-30T22:57:42.651Z,22.05
2018-08-30T23:00:14.359Z,22.07
2018-08-30T23:02:46.229Z,22.05
2018-08-30T23:05:17.611Z,21.90
2018-08-30T23:07:49.165Z,21.83
2018-08-30T23:10:21.227Z,21.77
2018-08-30T23:12:52.499Z,21.70
2018-08-30T23:15:24.097Z,21.72
2018-08-30T23:17:55.633Z,21.72
2018-08-30T23:20:27.031Z,21.79
2018-08-30T23:22:59.170Z,21.87
2018-08-30T23:25:30.868Z,21.88
2018-08-30T23:28:03.335Z,21.95
2018-08-30T23:30:35.486Z,22.03
2018-08-30T23:33:07.535Z,22.02
2018-08-30T23:35:39.073Z,21.97
2018-08-30T23:38:10.972Z,21.83
2018-08-30T23:40:43.085Z,21.58
2018-08-30T23:43:14.804Z,21.81
2018-08-30T23:45:46.416Z,21.86
2018-08-30T23:48:18.113Z,21.80
2018-08-30T23:50:49.660Z,21.82
2018-08-30T23:53:21.372Z,21.65
2018-08-30T23:55:53.145Z,21.67
2018-08-30T23:59:36.134Z,21.50
